This is the latest recevied weather packets stored in our database for station/object IZ3ZOD-13. If no packets are shown the sender has not sent any weather packets the latest 10 day(s).
| Time | Temp. | Humidity | Pressure | Rain* | Wind** | Luminosity | Snow |
|---|---|---|---|---|---|---|---|
| 1777502404 | 12.78° C | 82% | 1021.4 hPa | 0 mm | - | - | - |
| 1777501818 | 12.78° C | 83% | 1021.2 hPa | 0 mm | - | - | - |
| 1777500964 | 12.78° C | 83% | 1020.8 hPa | 0.25 mm | - | - | - |
| 1777500133 | 12.78° C | 85% | 1020.6 hPa | 0.25 mm | - | - | - |
| 1777499763 | 12.78° C | 85% | 1020.7 hPa | 0.51 mm | - | - | - |
| 1777498935 | 12.78° C | 86% | 1020.4 hPa | 0.51 mm | - | - | - |
| 1777497843 | 12.78° C | 86% | 1020.5 hPa | 0.51 mm | - | - | - |
| 1777496644 | 13.33° C | 83% | 1020.5 hPa | 0.25 mm | - | - | - |
| 1777496534 | 13.33° C | 82% | 1020.4 hPa | 0.25 mm | - | - | - |
| 1777494483 | 14.44° C | 73% | 1020.1 hPa | 0 mm | - | - | - |
| 1777494003 | 14.44° C | 74% | 1019.9 hPa | 0 mm | - | - | - |
| 1777493763 | 14.44° C | 74% | 1019.8 hPa | 0 mm | - | - | - |
| 1777489443 | 15.56° C | 68% | 1018.7 hPa | 0 mm | - | - | - |
| 1777489203 | 15.56° C | 68% | 1018.9 hPa | 0 mm | - | - | - |
| 1777486323 | 16.67° C | 60% | 1018 hPa | 0 mm | - | - | - |
| 1777485736 | 16.67° C | 59% | 1018 hPa | 0 mm | - | - | - |
| 1777484403 | 17.22° C | 57% | 1017.6 hPa | 0 mm | - | - | - |
| 1777480803 | 17.78° C | 56% | 1017.4 hPa | 0 mm | - | - | - |
| 1777479843 | 17.78° C | 56% | 1017.3 hPa | 0 mm | - | - | - |
| 1777473364 | 20.56° C | 52% | 1017.6 hPa | 0 mm | - | - | - |
| 1777470723 | 21.11° C | 52% | 1017.1 hPa | 0 mm | - | - | - |
| 1777467123 | 21.67° C | 49% | 1017.2 hPa | 0 mm | - | - | - |
| 1777466055 | 21.67° C | 51% | 1017.3 hPa | 0 mm | - | - | - |
| 1777464616 | 21.67° C | 48% | 1017.3 hPa | 0 mm | - | - | - |
| 1777462803 | 21.67° C | 51% | 1017.5 hPa | 0 mm | - | - | - |
* Rain latest hour (hover to see other rain measurements)
** Current wind speed in m/s (hover to see current wind gust speed)